sensor_id;sensor_type;location;lat;lon;timestamp;pressure;altitude;pressure_sealevel;temperature;humidity
30463;BME280;17256;43.618;25.336;2023-02-20T00:01:44;100608.84;;;11.71;81.91
30463;BME280;17256;43.618;25.336;2023-02-20T00:04:52;100706.00;;;12.39;82.12
30463;BME280;17256;43.618;25.336;2023-02-20T00:07:48;100702.84;;;12.36;82.48
30463;BME280;17256;43.618;25.336;2023-02-20T00:10:46;100702.81;;;12.22;83.97
30463;BME280;17256;43.618;25.336;2023-02-20T00:13:53;100711.25;;;12.14;84.88
30463;BME280;17256;43.618;25.336;2023-02-20T00:16:37;100703.78;;;11.95;85.67
30463;BME280;17256;43.618;25.336;2023-02-20T00:19:27;100706.34;;;12.03;86.11
30463;BME280;17256;43.618;25.336;2023-02-20T00:22:30;100713.56;;;12.04;85.98
30463;BME280;17256;43.618;25.336;2023-02-20T00:25:16;100718.19;;;11.90;87.27
30463;BME280;17256;43.618;25.336;2023-02-20T00:27:45;100536.97;;;10.85;87.89
30463;BME280;17256;43.618;25.336;2023-02-20T00:30:23;100355.19;;;9.65;88.41
30463;BME280;17256;43.618;25.336;2023-02-20T00:33:36;100709.63;;;11.79;88.85
30463;BME280;17256;43.618;25.336;2023-02-20T00:37:07;100715.69;;;11.67;89.57
30463;BME280;17256;43.618;25.336;2023-02-20T00:41:29;100697.22;;;11.61;89.75
30463;BME280;17256;43.618;25.336;2023-02-20T00:45:21;100341.63;;;9.29;89.55
30463;BME280;17256;43.618;25.336;2023-02-20T00:48:16;100482.38;;;10.13;90.00
30463;BME280;17256;43.618;25.336;2023-02-20T00:50:55;100604.69;;;10.99;90.40
30463;BME280;17256;43.618;25.336;2023-02-20T00:53:29;100705.97;;;11.65;90.42
30463;BME280;17256;43.618;25.336;2023-02-20T00:56:00;100715.91;;;11.66;90.72
30463;BME280;17256;43.618;25.336;2023-02-20T00:58:48;100441.78;;;10.02;90.52
30463;BME280;17256;43.618;25.336;2023-02-20T01:01:25;100712.44;;;11.57;91.71
30463;BME280;17256;43.618;25.336;2023-02-20T01:03:52;100655.72;;;11.15;92.40
30463;BME280;17256;43.618;25.336;2023-02-20T01:06:22;100428.72;;;9.76;91.97
30463;BME280;17256;43.618;25.336;2023-02-20T01:08:49;100464.25;;;9.91;92.87
30463;BME280;17256;43.618;25.336;2023-02-20T01:11:17;100317.81;;;9.08;92.56
30463;BME280;17256;43.618;25.336;2023-02-20T01:13:49;100529.09;;;10.20;93.63
30463;BME280;17256;43.618;25.336;2023-02-20T01:16:24;100719.69;;;11.30;94.86
30463;BME280;17256;43.618;25.336;2023-02-20T01:18:52;100394.75;;;9.28;94.64
30463;BME280;17256;43.618;25.336;2023-02-20T01:21:27;100727.09;;;11.30;94.88
30463;BME280;17256;43.618;25.336;2023-02-20T01:23:54;100496.41;;;9.97;94.05
30463;BME280;17256;43.618;25.336;2023-02-20T01:26:39;100713.97;;;11.25;94.53
30463;BME280;17256;43.618;25.336;2023-02-20T01:29:18;100721.19;;;11.33;93.67
30463;BME280;17256;43.618;25.336;2023-02-20T01:32:12;100323.94;;;8.88;93.21
30463;BME280;17256;43.618;25.336;2023-02-20T01:34:58;100302.38;;;8.79;92.50
30463;BME280;17256;43.618;25.336;2023-02-20T01:37:25;100465.66;;;9.80;91.95
30463;BME280;17256;43.618;25.336;2023-02-20T01:39:53;100285.69;;;8.74;92.40
30463;BME280;17256;43.618;25.336;2023-02-20T01:42:25;100305.50;;;8.76;92.60
30463;BME280;17256;43.618;25.336;2023-02-20T01:47:54;100402.81;;;9.36;92.99
30463;BME280;17256;43.618;25.336;2023-02-20T01:50:41;100299.19;;;8.75;93.22
30463;BME280;17256;43.618;25.336;2023-02-20T01:53:15;100538.72;;;10.30;93.25
30463;BME280;17256;43.618;25.336;2023-02-20T01:55:47;100488.94;;;9.91;93.17
30463;BME280;17256;43.618;25.336;2023-02-20T01:58:22;100514.91;;;10.16;93.64
30463;BME280;17256;43.618;25.336;2023-02-20T02:01:08;100346.06;;;9.08;93.67
30463;BME280;17256;43.618;25.336;2023-02-20T02:03:59;100443.69;;;9.52;94.14
30463;BME280;17256;43.618;25.336;2023-02-20T02:06:36;100713.06;;;11.18;94.55
30463;BME280;17256;43.618;25.336;2023-02-20T02:09:20;100565.97;;;10.32;93.61
30463;BME280;17256;43.618;25.336;2023-02-20T02:12:06;100313.47;;;8.71;92.73
30463;BME280;17256;43.618;25.336;2023-02-20T02:14:34;100724.06;;;11.18;93.64
30463;BME280;17256;43.618;25.336;2023-02-20T02:23:43;100728.44;;;11.13;92.90
30463;BME280;17256;43.618;25.336;2023-02-20T02:41:41;100544.69;;;9.70;94.27
30463;BME280;17256;43.618;25.336;2023-02-20T02:47:02;100366.38;;;8.42;94.97
30463;BME280;17256;43.618;25.336;2023-02-20T02:54:07;100781.69;;;10.84;96.43
30463;BME280;17256;43.618;25.336;2023-02-20T02:57:38;100785.28;;;10.84;96.39
30463;BME280;17256;43.618;25.336;2023-02-20T03:01:24;100577.09;;;9.45;96.93
30463;BME280;17256;43.618;25.336;2023-02-20T03:05:01;100379.00;;;8.13;97.12
30463;BME280;17256;43.618;25.336;2023-02-20T03:08:04;100512.44;;;9.00;97.48
30463;BME280;17256;43.618;25.336;2023-02-20T03:10:43;100548.13;;;9.21;96.91
30463;BME280;17256;43.618;25.336;2023-02-20T03:13:11;100600.78;;;9.52;97.25
30463;BME280;17256;43.618;25.336;2023-02-20T03:15:44;100695.13;;;10.09;97.82
30463;BME280;17256;43.618;25.336;2023-02-20T03:18:38;100491.97;;;8.81;97.79
30463;BME280;17256;43.618;25.336;2023-02-20T03:21:24;100549.06;;;9.13;98.33
30463;BME280;17256;43.618;25.336;2023-02-20T03:23:57;100487.66;;;8.72;98.73
30463;BME280;17256;43.618;25.336;2023-02-20T03:26:33;100594.13;;;9.25;98.74
30463;BME280;17256;43.618;25.336;2023-02-20T03:29:10;100442.50;;;8.23;98.38
30463;BME280;17256;43.618;25.336;2023-02-20T03:31:50;100521.63;;;8.62;99.78
30463;BME280;17256;43.618;25.336;2023-02-20T03:34:45;100834.31;;;10.44;100.00
30463;BME280;17256;43.618;25.336;2023-02-20T03:37:40;100596.22;;;8.94;100.00
30463;BME280;17256;43.618;25.336;2023-02-20T03:40:30;100399.88;;;7.47;100.00
30463;BME280;17256;43.618;25.336;2023-02-20T03:43:21;100445.75;;;7.75;100.00
30463;BME280;17256;43.618;25.336;2023-02-20T03:46:10;100623.69;;;8.71;100.00
30463;BME280;17256;43.618;25.336;2023-02-20T03:49:01;100877.34;;;10.14;100.00
30463;BME280;17256;43.618;25.336;2023-02-20T03:51:28;100718.56;;;9.16;100.00
30463;BME280;17256;43.618;25.336;2023-02-20T03:54:03;100688.31;;;8.95;100.00
30463;BME280;17256;43.618;25.336;2023-02-20T03:56:38;100868.47;;;9.98;100.00
30463;BME280;17256;43.618;25.336;2023-02-20T03:59:20;100597.78;;;8.21;100.00
30463;BME280;17256;43.618;25.336;2023-02-20T04:02:02;100457.47;;;7.37;100.00
30463;BME280;17256;43.618;25.336;2023-02-20T04:04:45;100733.19;;;8.94;100.00
30463;BME280;17256;43.618;25.336;2023-02-20T04:07:35;100644.53;;;8.12;100.00
30463;BME280;17256;43.618;25.336;2023-02-20T04:10:14;100627.38;;;8.18;100.00
30463;BME280;17256;43.618;25.336;2023-02-20T04:12:47;100461.38;;;7.20;100.00
30463;BME280;17256;43.618;25.336;2023-02-20T04:15:18;100606.59;;;7.86;100.00
30463;BME280;17256;43.618;25.336;2023-02-20T04:17:59;100711.91;;;8.58;100.00
30463;BME280;17256;43.618;25.336;2023-02-20T04:21:06;100886.69;;;9.61;100.00
30463;BME280;17256;43.618;25.336;2023-02-20T04:23:45;100472.47;;;6.88;100.00
30463;BME280;17256;43.618;25.336;2023-02-20T04:26:30;100804.03;;;8.97;100.00
30463;BME280;17256;43.618;25.336;2023-02-20T04:29:30;100901.53;;;9.52;100.00
30463;BME280;17256;43.618;25.336;2023-02-20T04:32:21;100543.25;;;7.28;100.00
30463;BME280;17256;43.618;25.336;2023-02-20T04:34:53;100892.34;;;9.45;100.00
30463;BME280;17256;43.618;25.336;2023-02-20T04:37:29;100454.81;;;6.75;100.00
30463;BME280;17256;43.618;25.336;2023-02-20T04:40:05;100501.75;;;7.02;100.00
30463;BME280;17256;43.618;25.336;2023-02-20T04:42:36;100917.19;;;9.43;100.00
30463;BME280;17256;43.618;25.336;2023-02-20T04:45:08;100459.66;;;6.57;100.00
30463;BME280;17256;43.618;25.336;2023-02-20T04:47:58;100755.78;;;8.50;100.00
30463;BME280;17256;43.618;25.336;2023-02-20T04:50:30;100443.47;;;6.56;100.00
30463;BME280;17256;43.618;25.336;2023-02-20T04:53:16;100826.06;;;8.81;100.00
30463;BME280;17256;43.618;25.336;2023-02-20T04:55:43;100618.22;;;7.57;100.00
30463;BME280;17256;43.618;25.336;2023-02-20T04:58:15;100617.94;;;7.52;100.00
30463;BME280;17256;43.618;25.336;2023-02-20T05:00:57;100705.56;;;8.12;100.00
30463;BME280;17256;43.618;25.336;2023-02-20T05:03:27;100738.38;;;8.12;100.00
30463;BME280;17256;43.618;25.336;2023-02-20T05:05:58;100763.75;;;8.29;100.00
30463;BME280;17256;43.618;25.336;2023-02-20T05:08:30;100798.63;;;8.43;100.00
30463;BME280;17256;43.618;25.336;2023-02-20T05:11:27;100980.66;;;9.32;100.00
30463;BME280;17256;43.618;25.336;2023-02-20T05:14:07;100511.84;;;6.54;100.00
30463;BME280;17256;43.618;25.336;2023-02-20T05:16:59;100960.31;;;9.27;100.00
30463;BME280;17256;43.618;25.336;2023-02-20T05:19:38;100852.19;;;8.60;100.00
30463;BME280;17256;43.618;25.336;2023-02-20T05:22:18;100676.53;;;7.41;100.00
30463;BME280;17256;43.618;25.336;2023-02-20T05:25:03;100560.06;;;6.70;100.00
30463;BME280;17256;43.618;25.336;2023-02-20T05:28:06;100977.50;;;9.20;100.00
30463;BME280;17256;43.618;25.336;2023-02-20T05:30:55;100626.13;;;7.13;100.00
30463;BME280;17256;43.618;25.336;2023-02-20T05:33:22;100994.44;;;9.16;100.00
30463;BME280;17256;43.618;25.336;2023-02-20T05:35:57;100605.94;;;6.74;100.00
30463;BME280;17256;43.618;25.336;2023-02-20T05:38:29;100639.31;;;7.01;100.00
30463;BME280;17256;43.618;25.336;2023-02-20T05:41:08;100699.50;;;7.63;100.00
30463;BME280;17256;43.618;25.336;2023-02-20T05:44:00;100596.97;;;7.67;100.00
30463;BME280;17256;43.618;25.336;2023-02-20T05:46:48;100866.31;;;9.41;99.36
30463;BME280;17256;43.618;25.336;2023-02-20T05:49:37;100650.94;;;7.73;100.00
30463;BME280;17256;43.618;25.336;2023-02-20T05:52:22;100810.16;;;8.53;100.00
30463;BME280;17256;43.618;25.336;2023-02-20T05:55:15;100922.25;;;9.32;100.00
30463;BME280;17256;43.618;25.336;2023-02-20T05:57:49;100793.28;;;8.42;100.00
30463;BME280;17256;43.618;25.336;2023-02-20T06:00:31;101043.25;;;10.12;96.97
30463;BME280;17256;43.618;25.336;2023-02-20T06:03:09;101053.56;;;10.10;96.31
30463;BME280;17256;43.618;25.336;2023-02-20T06:05:53;100808.66;;;8.51;95.64
30463;BME280;17256;43.618;25.336;2023-02-20T06:08:54;100711.72;;;7.83;94.42
30463;BME280;17256;43.618;25.336;2023-02-20T06:11:22;100731.19;;;8.19;92.65
30463;BME280;17256;43.618;25.336;2023-02-20T06:14:29;100732.59;;;8.07;90.59
30463;BME280;17256;43.618;25.336;2023-02-20T06:17:23;100845.78;;;8.76;90.39
30463;BME280;17256;43.618;25.336;2023-02-20T06:20:02;100818.78;;;8.65;88.04
30463;BME280;17256;43.618;25.336;2023-02-20T06:22:41;100709.06;;;7.98;86.43
30463;BME280;17256;43.618;25.336;2023-02-20T06:25:18;100713.81;;;8.35;84.87
30463;BME280;17256;43.618;25.336;2023-02-20T06:28:21;100968.53;;;9.87;82.99
30463;BME280;17256;43.618;25.336;2023-02-20T06:31:25;100720.63;;;8.39;82.23
30463;BME280;17256;43.618;25.336;2023-02-20T06:34:08;100707.41;;;8.20;82.28
30463;BME280;17256;43.618;25.336;2023-02-20T06:36:51;100863.06;;;9.22;80.87
30463;BME280;17256;43.618;25.336;2023-02-20T06:39:34;101133.19;;;10.85;81.17
30463;BME280;17256;43.618;25.336;2023-02-20T06:42:18;100831.28;;;9.13;78.74
30463;BME280;17256;43.618;25.336;2023-02-20T06:45:39;101020.34;;;10.57;76.35
30463;BME280;17256;43.618;25.336;2023-02-20T06:48:20;100934.13;;;10.14;75.75
30463;BME280;17256;43.618;25.336;2023-02-20T06:51:15;100993.34;;;10.61;73.92
30463;BME280;17256;43.618;25.336;2023-02-20T06:53:44;100863.66;;;10.00;72.66
30463;BME280;17256;43.618;25.336;2023-02-20T06:56:23;101027.31;;;11.04;71.22
30463;BME280;17256;43.618;25.336;2023-02-20T06:58:59;100868.38;;;10.06;70.38
30463;BME280;17256;43.618;25.336;2023-02-20T07:05:03;100957.16;;;10.72;69.63
30463;BME280;17256;43.618;25.336;2023-02-20T07:07:52;100890.00;;;10.24;68.86
30463;BME280;17256;43.618;25.336;2023-02-20T07:10:32;100815.19;;;9.63;69.02
30463;BME280;17256;43.618;25.336;2023-02-20T07:13:19;101148.75;;;10.93;71.61
30463;BME280;17256;43.618;25.336;2023-02-20T07:16:22;100922.13;;;9.48;72.58
30463;BME280;17256;43.618;25.336;2023-02-20T07:18:52;100809.63;;;8.81;72.27
30463;BME280;17256;43.618;25.336;2023-02-20T07:21:22;100979.03;;;9.83;72.45
30463;BME280;17256;43.618;25.336;2023-02-20T07:24:31;101041.72;;;10.32;72.00
30463;BME280;17256;43.618;25.336;2023-02-20T07:27:03;100808.88;;;8.64;72.88
30463;BME280;17256;43.618;25.336;2023-02-20T07:29:32;100924.84;;;9.85;72.72
30463;BME280;17256;43.618;25.336;2023-02-20T07:32:14;101017.28;;;10.37;70.89
30463;BME280;17256;43.618;25.336;2023-02-20T07:35:26;100827.41;;;8.85;70.80
30463;BME280;17256;43.618;25.336;2023-02-20T07:38:27;101018.44;;;10.28;71.12
30463;BME280;17256;43.618;25.336;2023-02-20T07:40:56;101087.22;;;10.79;71.10
30463;BME280;17256;43.618;25.336;2023-02-20T07:44:08;101047.81;;;10.57;70.02
30463;BME280;17256;43.618;25.336;2023-02-20T07:47:31;101234.44;;;11.70;69.80
30463;BME280;17256;43.618;25.336;2023-02-20T07:50:44;101236.16;;;11.71;69.91
30463;BME280;17256;43.618;25.336;2023-02-20T07:54:01;101243.94;;;11.53;70.34
30463;BME280;17256;43.618;25.336;2023-02-20T07:56:47;100859.78;;;9.04;69.71
30463;BME280;17256;43.618;25.336;2023-02-20T07:59:21;101050.16;;;10.08;69.64
30463;BME280;17256;43.618;25.336;2023-02-20T08:01:58;100868.66;;;9.06;69.89
30463;BME280;17256;43.618;25.336;2023-02-20T08:05:18;100938.75;;;9.46;69.61
30463;BME280;17256;43.618;25.336;2023-02-20T08:08:17;101103.41;;;10.44;69.87
30463;BME280;17256;43.618;25.336;2023-02-20T08:11:14;101167.47;;;10.89;70.00
30463;BME280;17256;43.618;25.336;2023-02-20T08:14:23;101112.63;;;10.29;69.60
30463;BME280;17256;43.618;25.336;2023-02-20T08:17:11;100890.28;;;9.01;69.67
30463;BME280;17256;43.618;25.336;2023-02-20T08:19:41;101124.22;;;10.54;69.13
30463;BME280;17256;43.618;25.336;2023-02-20T08:22:16;100930.84;;;9.29;69.07
30463;BME280;17256;43.618;25.336;2023-02-20T08:25:25;100876.88;;;9.06;68.28
30463;BME280;17256;43.618;25.336;2023-02-20T08:28:21;101295.06;;;11.47;69.54
30463;BME280;17256;43.618;25.336;2023-02-20T08:31:52;100992.84;;;9.90;68.63
30463;BME280;17256;43.618;25.336;2023-02-20T08:35:24;101307.03;;;11.84;67.90
30463;BME280;17256;43.618;25.336;2023-02-20T08:38:03;101214.25;;;11.48;67.23
30463;BME280;17256;43.618;25.336;2023-02-20T08:41:03;101092.97;;;10.55;66.62
30463;BME280;17256;43.618;25.336;2023-02-20T08:43:56;101174.47;;;10.77;66.96
30463;BME280;17256;43.618;25.336;2023-02-20T08:48:10;101329.25;;;11.67;67.42
30463;BME280;17256;43.618;25.336;2023-02-20T08:52:15;101339.75;;;11.49;67.69
30463;BME280;17256;43.618;25.336;2023-02-20T08:55:35;101093.78;;;9.80;68.55
30463;BME280;17256;43.618;25.336;2023-02-20T08:59:07;101210.41;;;10.53;68.13
30463;BME280;17256;43.618;25.336;2023-02-20T09:07:19;101338.88;;;11.63;67.07
30463;BME280;17256;43.618;25.336;2023-02-20T09:11:03;101234.97;;;10.92;67.49
30463;BME280;17256;43.618;25.336;2023-02-20T09:14:12;101141.47;;;10.47;66.66
30463;BME280;17256;43.618;25.336;2023-02-20T09:18:47;100995.94;;;9.72;66.32
30463;BME280;17256;43.618;25.336;2023-02-20T09:21:18;101360.00;;;11.86;65.99
30463;BME280;17256;43.618;25.336;2023-02-20T09:24:20;100974.00;;;9.72;65.60
30463;BME280;17256;43.618;25.336;2023-02-20T09:26:47;100998.44;;;9.59;65.80
30463;BME280;17256;43.618;25.336;2023-02-20T09:29:40;101187.13;;;11.01;65.89
30463;BME280;17256;43.618;25.336;2023-02-20T09:32:21;101183.69;;;11.14;65.22
30463;BME280;17256;43.618;25.336;2023-02-20T09:35:01;100949.44;;;9.79;64.65
30463;BME280;17256;43.618;25.336;2023-02-20T09:37:39;100983.94;;;9.73;65.47
30463;BME280;17256;43.618;25.336;2023-02-20T09:40:08;101169.88;;;10.92;65.10
30463;BME280;17256;43.618;25.336;2023-02-20T09:43:07;101049.72;;;10.42;64.81
30463;BME280;17256;43.618;25.336;2023-02-20T09:45:55;101041.19;;;10.52;64.05
30463;BME280;17256;43.618;25.336;2023-02-20T09:48:38;101318.59;;;12.81;62.81
30463;BME280;17256;43.618;25.336;2023-02-20T09:51:17;101252.66;;;12.79;62.34
30463;BME280;17256;43.618;25.336;2023-02-20T09:54:03;101331.84;;;13.63;60.93
30463;BME280;17256;43.618;25.336;2023-02-20T09:56:37;101018.19;;;11.54;59.88
30463;BME280;17256;43.618;25.336;2023-02-20T10:04:49;100959.34;;;11.34;59.06
30463;BME280;17256;43.618;25.336;2023-02-20T10:07:26;101189.28;;;12.58;58.96
30463;BME280;17256;43.618;25.336;2023-02-20T10:09:55;101045.72;;;11.03;60.47
30463;BME280;17256;43.618;25.336;2023-02-20T10:15:19;100994.00;;;10.63;60.82
30463;BME280;17256;43.618;25.336;2023-02-20T10:20:42;101274.59;;;12.66;61.08
30463;BME280;17256;43.618;25.336;2023-02-20T10:23:50;101338.25;;;13.14;61.66
30463;BME280;17256;43.618;25.336;2023-02-20T10:26:21;101338.34;;;13.48;60.88
30463;BME280;17256;43.618;25.336;2023-02-20T10:28:49;100925.19;;;11.00;61.57
30463;BME280;17256;43.618;25.336;2023-02-20T10:31:27;101318.63;;;13.23;61.47
30463;BME280;17256;43.618;25.336;2023-02-20T10:34:17;100973.50;;;10.44;62.23
30463;BME280;17256;43.618;25.336;2023-02-20T10:37:07;101327.13;;;12.28;64.32
30463;BME280;17256;43.618;25.336;2023-02-20T10:39:40;101007.84;;;10.25;65.01
30463;BME280;17256;43.618;25.336;2023-02-20T10:42:29;101194.34;;;11.46;65.10
30463;BME280;17256;43.618;25.336;2023-02-20T10:45:51;101055.03;;;10.73;64.52
30463;BME280;17256;43.618;25.336;2023-02-20T10:48:44;101205.34;;;11.46;65.41
30463;BME280;17256;43.618;25.336;2023-02-20T10:51:40;101091.00;;;11.22;64.87
30463;BME280;17256;43.618;25.336;2023-02-20T10:54:50;101017.97;;;10.98;63.66
30463;BME280;17256;43.618;25.336;2023-02-20T11:01:18;101098.00;;;11.76;62.32
30463;BME280;17256;43.618;25.336;2023-02-20T11:04:10;101307.56;;;13.23;62.03
30463;BME280;17256;43.618;25.336;2023-02-20T11:07:12;101184.56;;;12.52;62.01
30463;BME280;17256;43.618;25.336;2023-02-20T11:09:47;101177.69;;;12.41;61.42
30463;BME280;17256;43.618;25.336;2023-02-20T11:12:46;101300.75;;;12.98;62.19
30463;BME280;17256;43.618;25.336;2023-02-20T11:15:19;101153.09;;;12.18;61.92
30463;BME280;17256;43.618;25.336;2023-02-20T11:17:59;101115.25;;;12.06;62.16
30463;BME280;17256;43.618;25.336;2023-02-20T11:20:54;101087.81;;;11.55;62.62
30463;BME280;17256;43.618;25.336;2023-02-20T11:23:46;101150.47;;;12.10;61.64
30463;BME280;17256;43.618;25.336;2023-02-20T11:26:38;101088.97;;;12.03;61.67
30463;BME280;17256;43.618;25.336;2023-02-20T11:33:20;101299.50;;;13.50;59.72
30463;BME280;17256;43.618;25.336;2023-02-20T11:36:44;101257.34;;;13.07;60.50
30463;BME280;17256;43.618;25.336;2023-02-20T11:40:04;101295.78;;;14.05;58.50
30463;BME280;17256;43.618;25.336;2023-02-20T11:42:34;101155.34;;;13.41;58.48
30463;BME280;17256;43.618;25.336;2023-02-20T11:45:26;101308.47;;;14.41;57.72
30463;BME280;17256;43.618;25.336;2023-02-20T11:48:33;101080.06;;;12.78;58.19
30463;BME280;17256;43.618;25.336;2023-02-20T11:51:00;101114.31;;;12.97;58.09
30463;BME280;17256;43.618;25.336;2023-02-20T11:53:41;101075.00;;;12.88;57.80
30463;BME280;17256;43.618;25.336;2023-02-20T11:59:36;101288.66;;;13.83;58.14
30463;BME280;17256;43.618;25.336;2023-02-20T12:09:23;101286.19;;;13.95;54.32
30463;BME280;17256;43.618;25.336;2023-02-20T12:12:14;101091.00;;;12.65;54.05
30463;BME280;17256;43.618;25.336;2023-02-20T12:14:54;101147.38;;;13.18;52.67
30463;BME280;17256;43.618;25.336;2023-02-20T12:20:25;101163.09;;;12.97;52.64
30463;BME280;17256;43.618;25.336;2023-02-20T12:26:25;101150.13;;;12.90;52.46
30463;BME280;17256;43.618;25.336;2023-02-20T12:29:11;101056.13;;;12.51;52.28
30463;BME280;17256;43.618;25.336;2023-02-20T12:32:06;101300.31;;;13.78;52.54
30463;BME280;17256;43.618;25.336;2023-02-20T12:47:20;101289.88;;;13.74;53.68
30463;BME280;17256;43.618;25.336;2023-02-20T12:50:15;101113.81;;;12.31;54.47
30463;BME280;17256;43.618;25.336;2023-02-20T12:56:11;101287.56;;;14.19;53.58
30463;BME280;17256;43.618;25.336;2023-02-20T12:58:46;101284.16;;;14.16;53.18
30463;BME280;17256;43.618;25.336;2023-02-20T13:01:20;101129.22;;;13.09;52.60
30463;BME280;17256;43.618;25.336;2023-02-20T13:04:01;101261.53;;;13.93;52.78
30463;BME280;17256;43.618;25.336;2023-02-20T13:06:45;101002.56;;;12.25;53.38
30463;BME280;17256;43.618;25.336;2023-02-20T13:10:12;100964.91;;;12.39;52.48
30463;BME280;17256;43.618;25.336;2023-02-20T13:12:39;101214.31;;;13.81;52.77
30463;BME280;17256;43.618;25.336;2023-02-20T13:15:32;101283.75;;;14.20;52.57
30463;BME280;17256;43.618;25.336;2023-02-20T13:18:57;101282.72;;;13.86;52.98
30463;BME280;17256;43.618;25.336;2023-02-20T13:21:17;101124.72;;;12.67;53.55
30463;BME280;17256;43.618;25.336;2023-02-20T13:23:46;101033.53;;;12.34;53.41
30463;BME280;17256;43.618;25.336;2023-02-20T13:29:15;101110.53;;;12.70;53.92
30463;BME280;17256;43.618;25.336;2023-02-20T13:36:52;101191.13;;;13.28;54.35
30463;BME280;17256;43.618;25.336;2023-02-20T13:52:41;101242.63;;;13.90;54.16
30463;BME280;17256;43.618;25.336;2023-02-20T13:55:24;101103.28;;;12.97;53.88
30463;BME280;17256;43.618;25.336;2023-02-20T14:00:46;101229.50;;;13.58;54.56
30463;BME280;17256;43.618;25.336;2023-02-20T14:03:32;100948.31;;;11.70;54.65
30463;BME280;17256;43.618;25.336;2023-02-20T14:06:19;100933.03;;;11.67;55.19
30463;BME280;17256;43.618;25.336;2023-02-20T14:09:09;100895.81;;;11.22;55.56
30463;BME280;17256;43.618;25.336;2023-02-20T14:11:53;101164.88;;;12.83;55.14
30463;BME280;17256;43.618;25.336;2023-02-20T14:14:31;101229.94;;;13.27;55.30
30463;BME280;17256;43.618;25.336;2023-02-20T14:17:17;101016.25;;;11.91;55.39
30463;BME280;17256;43.618;25.336;2023-02-20T14:20:14;101234.44;;;13.34;55.02
30463;BME280;17256;43.618;25.336;2023-02-20T14:28:55;101110.81;;;12.54;55.58
30463;BME280;17256;43.618;25.336;2023-02-20T14:32:02;101040.28;;;12.04;55.89
30463;BME280;17256;43.618;25.336;2023-02-20T14:35:09;101237.41;;;13.33;55.62
30463;BME280;17256;43.618;25.336;2023-02-20T14:41:09;100842.03;;;10.56;55.45
30463;BME280;17256;43.618;25.336;2023-02-20T14:44:00;101222.50;;;12.99;50.86
30463;BME280;17256;43.618;25.336;2023-02-20T14:47:00;101242.69;;;13.06;49.94
30463;BME280;17256;43.618;25.336;2023-02-20T14:49:48;100911.06;;;10.89;50.02
30463;BME280;17256;43.618;25.336;2023-02-20T14:52:29;100917.06;;;10.92;49.44
30463;BME280;17256;43.618;25.336;2023-02-20T14:57:48;101031.28;;;11.52;50.36
30463;BME280;17256;43.618;25.336;2023-02-20T15:02:53;101171.31;;;12.19;51.02
30463;BME280;17256;43.618;25.336;2023-02-20T15:05:32;101022.00;;;11.17;50.84
30463;BME280;17256;43.618;25.336;2023-02-20T15:08:12;101026.53;;;11.25;50.41
30463;BME280;17256;43.618;25.336;2023-02-20T15:10:50;101036.69;;;11.24;50.58
30463;BME280;17256;43.618;25.336;2023-02-20T15:13:19;101186.00;;;12.05;51.04
30463;BME280;17256;43.618;25.336;2023-02-20T15:16:12;101013.50;;;10.97;50.77
30463;BME280;17256;43.618;25.336;2023-02-20T15:18:44;101028.56;;;11.01;50.63
30463;BME280;17256;43.618;25.336;2023-02-20T15:21:14;101112.09;;;11.36;50.39
30463;BME280;17256;43.618;25.336;2023-02-20T15:23:54;101074.72;;;11.06;51.12
30463;BME280;17256;43.618;25.336;2023-02-20T15:26:35;101250.16;;;12.06;50.98
30463;BME280;17256;43.618;25.336;2023-02-20T15:31:44;101087.50;;;10.84;50.87
30463;BME280;17256;43.618;25.336;2023-02-20T15:34:21;101110.09;;;10.94;51.08
30463;BME280;17256;43.618;25.336;2023-02-20T15:36:47;101048.19;;;10.54;51.08
30463;BME280;17256;43.618;25.336;2023-02-20T15:39:15;101127.63;;;10.93;51.19
30463;BME280;17256;43.618;25.336;2023-02-20T15:41:42;101180.13;;;11.28;51.23
30463;BME280;17256;43.618;25.336;2023-02-20T15:44:07;101021.31;;;10.50;51.51
30463;BME280;17256;43.618;25.336;2023-02-20T15:46:35;101038.63;;;10.50;51.78
30463;BME280;17256;43.618;25.336;2023-02-20T15:49:02;101143.34;;;10.99;51.77
30463;BME280;17256;43.618;25.336;2023-02-20T15:51:28;101236.34;;;11.55;51.82
30463;BME280;17256;43.618;25.336;2023-02-20T15:53:56;101223.94;;;11.44;51.99
30463;BME280;17256;43.618;25.336;2023-02-20T15:56:28;100929.03;;;9.59;52.09
30463;BME280;17256;43.618;25.336;2023-02-20T15:58:56;101038.13;;;10.09;52.24
30463;BME280;17256;43.618;25.336;2023-02-20T16:01:23;101100.47;;;10.46;52.90
30463;BME280;17256;43.618;25.336;2023-02-20T16:03:49;101189.31;;;10.91;52.20
30463;BME280;17256;43.618;25.336;2023-02-20T16:06:14;101242.41;;;11.21;52.80
30463;BME280;17256;43.618;25.336;2023-02-20T16:08:40;100974.50;;;9.53;52.90
30463;BME280;17256;43.618;25.336;2023-02-20T16:11:06;101175.91;;;10.73;52.79
30463;BME280;17256;43.618;25.336;2023-02-20T16:13:37;101228.16;;;11.02;53.14
30463;BME280;17256;43.618;25.336;2023-02-20T16:16:29;101191.53;;;10.72;52.89
30463;BME280;17256;43.618;25.336;2023-02-20T16:18:56;101078.25;;;10.10;53.13
30463;BME280;17256;43.618;25.336;2023-02-20T16:21:23;100994.75;;;9.52;52.96
30463;BME280;17256;43.618;25.336;2023-02-20T16:23:50;100893.38;;;8.98;52.33
30463;BME280;17256;43.618;25.336;2023-02-20T16:26:22;100756.50;;;8.13;52.35
30463;BME280;17256;43.618;25.336;2023-02-20T16:28:57;101058.56;;;9.92;52.68
30463;BME280;17256;43.618;25.336;2023-02-20T16:34:27;101030.25;;;9.45;53.11
30463;BME280;17256;43.618;25.336;2023-02-20T16:37:04;100956.69;;;9.03;53.37